sensor_id;sensor_type;location;lat;lon;timestamp;pressure;altitude;pressure_sealevel;temperature;humidity
66742;BME280;53654;54.152;19.432;2023-04-29T00:00:58;101520.90;;;8.21;45.90
66742;BME280;53654;54.152;19.432;2023-04-29T00:03:26;101520.38;;;8.20;45.96
66742;BME280;53654;54.152;19.432;2023-04-29T00:05:56;101516.70;;;8.18;45.81
66742;BME280;53654;54.152;19.432;2023-04-29T00:08:25;101514.07;;;8.16;46.03
66742;BME280;53654;54.152;19.432;2023-04-29T00:10:53;101509.35;;;8.15;46.24
66742;BME280;53654;54.152;19.432;2023-04-29T00:13:22;101511.10;;;8.15;46.21
66742;BME280;53654;54.152;19.432;2023-04-29T00:15:50;101509.17;;;8.14;46.17
66742;BME280;53654;54.152;19.432;2023-04-29T00:18:18;101512.28;;;8.13;46.00
66742;BME280;53654;54.152;19.432;2023-04-29T00:20:46;101516.61;;;8.12;46.29
66742;BME280;53654;54.152;19.432;2023-04-29T00:23:14;101514.52;;;8.11;46.56
66742;BME280;53654;54.152;19.432;2023-04-29T00:25:42;101516.71;;;8.07;46.68
66742;BME280;53654;54.152;19.432;2023-04-29T00:28:10;101516.01;;;8.05;46.73
66742;BME280;53654;54.152;19.432;2023-04-29T00:30:38;101515.48;;;8.06;46.82
66742;BME280;53654;54.152;19.432;2023-04-29T00:33:06;101512.69;;;8.04;46.83
66742;BME280;53654;54.152;19.432;2023-04-29T00:35:35;101509.91;;;8.04;46.83
66742;BME280;53654;54.152;19.432;2023-04-29T00:38:03;101510.09;;;8.05;47.00
66742;BME280;53654;54.152;19.432;2023-04-29T00:40:31;101509.38;;;8.04;47.01
66742;BME280;53654;54.152;19.432;2023-04-29T00:43:00;101504.14;;;8.01;47.13
66742;BME280;53654;54.152;19.432;2023-04-29T00:45:28;101500.06;;;7.97;47.17
66742;BME280;53654;54.152;19.432;2023-04-29T00:47:56;101496.41;;;7.96;47.26
66742;BME280;53654;54.152;19.432;2023-04-29T00:50:24;101495.54;;;7.95;47.16
66742;BME280;53654;54.152;19.432;2023-04-29T00:52:52;101491.00;;;7.94;47.20
66742;BME280;53654;54.152;19.432;2023-04-29T00:55:22;101490.13;;;7.94;47.46
66742;BME280;53654;54.152;19.432;2023-04-29T00:57:51;101484.05;;;7.95;47.47
66742;BME280;53654;54.152;19.432;2023-04-29T01:00:19;101484.40;;;7.94;47.40
66742;BME280;53654;54.152;19.432;2023-04-29T01:02:48;101481.23;;;7.92;47.48
66742;BME280;53654;54.152;19.432;2023-04-29T01:05:17;101480.02;;;7.92;47.45
66742;BME280;53654;54.152;19.432;2023-04-29T01:07:55;101477.80;;;7.95;47.35
66742;BME280;53654;54.152;19.432;2023-04-29T01:10:28;101479.54;;;7.95;47.35
66742;BME280;53654;54.152;19.432;2023-04-29T01:13:06;101486.17;;;7.96;47.47
66742;BME280;53654;54.152;19.432;2023-04-29T01:18:16;101480.15;;;8.01;47.42
66742;BME280;53654;54.152;19.432;2023-04-29T01:20:46;101474.06;;;8.00;47.55
66742;BME280;53654;54.152;19.432;2023-04-29T01:23:15;101471.95;;;7.99;47.40
66742;BME280;53654;54.152;19.432;2023-04-29T01:25:43;101469.49;;;7.97;47.41
66742;BME280;53654;54.152;19.432;2023-04-29T01:31:37;101468.58;;;7.93;47.66
66742;BME280;53654;54.152;19.432;2023-04-29T01:37:05;101465.61;;;7.93;47.77
66742;BME280;53654;54.152;19.432;2023-04-29T01:39:45;101468.79;;;7.96;47.89
66742;BME280;53654;54.152;19.432;2023-04-29T01:42:35;101464.30;;;7.98;47.62
66742;BME280;53654;54.152;19.432;2023-04-29T01:45:14;101462.75;;;7.99;47.69
66742;BME280;53654;54.152;19.432;2023-04-29T01:47:50;101459.64;;;8.00;47.71
66742;BME280;53654;54.152;19.432;2023-04-29T01:50:20;101455.48;;;8.01;47.52
66742;BME280;53654;54.152;19.432;2023-04-29T01:52:48;101454.13;;;8.04;47.43
66742;BME280;53654;54.152;19.432;2023-04-29T01:55:16;101452.06;;;8.05;47.32
66742;BME280;53654;54.152;19.432;2023-04-29T01:57:52;101452.96;;;8.08;47.42
66742;BME280;53654;54.152;19.432;2023-04-29T02:00:56;101449.29;;;8.06;47.23
66742;BME280;53654;54.152;19.432;2023-04-29T02:03:25;101441.70;;;8.11;47.31
66742;BME280;53654;54.152;19.432;2023-04-29T02:05:55;101442.09;;;8.14;47.37
66742;BME280;53654;54.152;19.432;2023-04-29T02:08:24;101440.91;;;8.17;47.28
66742;BME280;53654;54.152;19.432;2023-04-29T02:10:54;101433.48;;;8.21;47.25
66742;BME280;53654;54.152;19.432;2023-04-29T02:13:41;101431.05;;;8.21;47.50
66742;BME280;53654;54.152;19.432;2023-04-29T02:16:12;101426.90;;;8.23;47.36
66742;BME280;53654;54.152;19.432;2023-04-29T02:18:53;101424.29;;;8.23;47.42
66742;BME280;53654;54.152;19.432;2023-04-29T02:21:21;101424.48;;;8.24;47.56
66742;BME280;53654;54.152;19.432;2023-04-29T02:23:50;101425.16;;;8.23;47.82
66742;BME280;53654;54.152;19.432;2023-04-29T02:26:18;101421.80;;;8.19;47.84
66742;BME280;53654;54.152;19.432;2023-04-29T02:28:47;101417.50;;;8.21;47.83
66742;BME280;53654;54.152;19.432;2023-04-29T02:31:15;101414.55;;;8.23;47.91
66742;BME280;53654;54.152;19.432;2023-04-29T02:33:44;101412.65;;;8.23;48.00
66742;BME280;53654;54.152;19.432;2023-04-29T02:36:12;101407.29;;;8.25;47.95
66742;BME280;53654;54.152;19.432;2023-04-29T02:38:40;101408.87;;;8.27;48.07
66742;BME280;53654;54.152;19.432;2023-04-29T02:41:08;101407.36;;;8.31;47.94
66742;BME280;53654;54.152;19.432;2023-04-29T02:43:36;101406.17;;;8.32;48.10
66742;BME280;53654;54.152;19.432;2023-04-29T02:46:04;101400.33;;;8.37;48.09
66742;BME280;53654;54.152;19.432;2023-04-29T02:48:33;101394.81;;;8.42;48.07
66742;BME280;53654;54.152;19.432;2023-04-29T02:51:01;101391.91;;;8.46;48.19
66742;BME280;53654;54.152;19.432;2023-04-29T02:53:29;101391.26;;;8.51;48.04
66742;BME280;53654;54.152;19.432;2023-04-29T02:55:57;101385.38;;;8.55;48.06
66742;BME280;53654;54.152;19.432;2023-04-29T02:58:25;101383.16;;;8.59;48.06
66742;BME280;53654;54.152;19.432;2023-04-29T03:00:53;101380.60;;;8.64;47.83
66742;BME280;53654;54.152;19.432;2023-04-29T03:03:21;101380.85;;;8.71;47.83
66742;BME280;53654;54.152;19.432;2023-04-29T03:05:50;101384.02;;;8.76;47.71
66742;BME280;53654;54.152;19.432;2023-04-29T03:08:18;101387.70;;;8.80;47.86
66742;BME280;53654;54.152;19.432;2023-04-29T03:10:46;101391.39;;;8.83;47.80
66742;BME280;53654;54.152;19.432;2023-04-29T03:13:14;101389.68;;;8.86;47.78
66742;BME280;53654;54.152;19.432;2023-04-29T03:15:44;101389.52;;;8.88;47.91
66742;BME280;53654;54.152;19.432;2023-04-29T03:18:12;101388.30;;;8.88;47.90
66742;BME280;53654;54.152;19.432;2023-04-29T03:20:40;101385.70;;;8.89;47.98
66742;BME280;53654;54.152;19.432;2023-04-29T03:23:08;101385.35;;;8.90;48.07
66742;BME280;53654;54.152;19.432;2023-04-29T03:25:36;101388.48;;;8.90;48.05
66742;BME280;53654;54.152;19.432;2023-04-29T03:28:04;101383.79;;;8.90;48.13
66742;BME280;53654;54.152;19.432;2023-04-29T03:30:33;101380.11;;;8.86;48.39
66742;BME280;53654;54.152;19.432;2023-04-29T03:33:02;101380.23;;;8.81;48.45
66742;BME280;53654;54.152;19.432;2023-04-29T03:35:31;101380.89;;;8.77;48.62
66742;BME280;53654;54.152;19.432;2023-04-29T03:38:17;101380.16;;;8.73;48.75
66742;BME280;53654;54.152;19.432;2023-04-29T03:40:46;101383.29;;;8.72;49.01
66742;BME280;53654;54.152;19.432;2023-04-29T03:43:15;101384.30;;;8.69;49.27
66742;BME280;53654;54.152;19.432;2023-04-29T03:45:43;101386.35;;;8.65;49.17
66742;BME280;53654;54.152;19.432;2023-04-29T03:48:13;101388.94;;;8.62;49.21
66742;BME280;53654;54.152;19.432;2023-04-29T03:50:41;101391.17;;;8.61;49.49
66742;BME280;53654;54.152;19.432;2023-04-29T03:53:09;101389.80;;;8.62;49.55
66742;BME280;53654;54.152;19.432;2023-04-29T03:55:38;101392.09;;;8.64;49.60
66742;BME280;53654;54.152;19.432;2023-04-29T03:58:07;101393.64;;;8.63;49.73
66742;BME280;53654;54.152;19.432;2023-04-29T04:00:35;101391.04;;;8.64;49.61
66742;BME280;53654;54.152;19.432;2023-04-29T04:03:05;101388.42;;;8.63;49.92
66742;BME280;53654;54.152;19.432;2023-04-29T04:05:33;101379.16;;;8.58;50.18
66742;BME280;53654;54.152;19.432;2023-04-29T04:08:07;101378.28;;;8.57;50.21
66742;BME280;53654;54.152;19.432;2023-04-29T04:10:47;101378.09;;;8.55;50.52
66742;BME280;53654;54.152;19.432;2023-04-29T04:13:35;101380.48;;;8.52;50.56
66742;BME280;53654;54.152;19.432;2023-04-29T04:16:04;101380.34;;;8.55;50.74
66742;BME280;53654;54.152;19.432;2023-04-29T04:18:32;101379.98;;;8.53;50.70
66742;BME280;53654;54.152;19.432;2023-04-29T04:21:10;101378.73;;;8.51;50.67
66742;BME280;53654;54.152;19.432;2023-04-29T04:23:40;101381.30;;;8.47;50.98
66742;BME280;53654;54.152;19.432;2023-04-29T04:26:10;101377.52;;;8.51;50.88
66742;BME280;53654;54.152;19.432;2023-04-29T04:28:53;101381.52;;;8.50;51.02
66742;BME280;53654;54.152;19.432;2023-04-29T04:31:54;101379.09;;;8.51;51.08
66742;BME280;53654;54.152;19.432;2023-04-29T04:34:22;101380.33;;;8.53;51.05
66742;BME280;53654;54.152;19.432;2023-04-29T04:36:52;101376.72;;;8.57;51.03
66742;BME280;53654;54.152;19.432;2023-04-29T04:39:21;101378.85;;;8.62;51.09
66742;BME280;53654;54.152;19.432;2023-04-29T04:41:50;101375.61;;;8.70;51.09
66742;BME280;53654;54.152;19.432;2023-04-29T04:44:19;101375.70;;;8.80;51.03
66742;BME280;53654;54.152;19.432;2023-04-29T04:47:06;101369.94;;;8.98;50.80
66742;BME280;53654;54.152;19.432;2023-04-29T04:49:41;101367.16;;;9.22;50.51
66742;BME280;53654;54.152;19.432;2023-04-29T04:52:11;101369.89;;;9.41;50.06
66742;BME280;53654;54.152;19.432;2023-04-29T04:54:44;101367.92;;;9.61;49.79
66742;BME280;53654;54.152;19.432;2023-04-29T04:57:17;101363.50;;;9.85;49.37
66742;BME280;53654;54.152;19.432;2023-04-29T04:59:45;101364.98;;;10.09;48.70
66742;BME280;53654;54.152;19.432;2023-04-29T05:02:13;101363.00;;;10.33;48.26
66742;BME280;53654;54.152;19.432;2023-04-29T05:04:41;101366.39;;;10.61;47.68
66742;BME280;53654;54.152;19.432;2023-04-29T05:07:10;101367.63;;;10.93;47.13
66742;BME280;53654;54.152;19.432;2023-04-29T05:09:55;101362.36;;;11.28;46.39
66742;BME280;53654;54.152;19.432;2023-04-29T05:12:23;101366.81;;;11.71;45.85
66742;BME280;53654;54.152;19.432;2023-04-29T05:14:57;101368.58;;;12.13;44.94
66742;BME280;53654;54.152;19.432;2023-04-29T05:17:26;101370.15;;;12.46;44.44
66742;BME280;53654;54.152;19.432;2023-04-29T05:19:55;101370.98;;;12.76;43.59
66742;BME280;53654;54.152;19.432;2023-04-29T05:22:23;101367.27;;;13.03;42.75
66742;BME280;53654;54.152;19.432;2023-04-29T05:24:52;101363.27;;;13.19;42.66
66742;BME280;53654;54.152;19.432;2023-04-29T05:27:21;101361.89;;;13.38;42.06
66742;BME280;53654;54.152;19.432;2023-04-29T05:29:49;101360.91;;;13.64;41.75
66742;BME280;53654;54.152;19.432;2023-04-29T05:32:18;101360.32;;;14.10;40.42
66742;BME280;53654;54.152;19.432;2023-04-29T05:34:46;101360.41;;;14.55;39.52
66742;BME280;53654;54.152;19.432;2023-04-29T05:37:14;101357.81;;;14.97;38.80
66742;BME280;53654;54.152;19.432;2023-04-29T05:40:03;101355.89;;;15.36;37.71
66742;BME280;53654;54.152;19.432;2023-04-29T05:42:31;101351.43;;;15.69;37.06
66742;BME280;53654;54.152;19.432;2023-04-29T05:45:00;101354.73;;;15.89;36.79
66742;BME280;53654;54.152;19.432;2023-04-29T05:47:32;101352.66;;;15.96;36.37
66742;BME280;53654;54.152;19.432;2023-04-29T05:50:01;101355.67;;;15.95;36.12
66742;BME280;53654;54.152;19.432;2023-04-29T05:52:29;101354.17;;;15.91;36.04
66742;BME280;53654;54.152;19.432;2023-04-29T05:54:57;101354.38;;;15.90;36.24
66742;BME280;53654;54.152;19.432;2023-04-29T05:57:25;101345.34;;;15.75;36.37
66742;BME280;53654;54.152;19.432;2023-04-29T05:59:53;101341.80;;;15.58;36.90
66742;BME280;53654;54.152;19.432;2023-04-29T06:02:22;101346.88;;;15.39;37.06
66742;BME280;53654;54.152;19.432;2023-04-29T06:04:50;101348.29;;;15.29;37.03
66742;BME280;53654;54.152;19.432;2023-04-29T06:07:31;101350.65;;;15.25;37.55
66742;BME280;53654;54.152;19.432;2023-04-29T06:10:04;101350.42;;;15.28;37.36
66742;BME280;53654;54.152;19.432;2023-04-29T06:12:32;101345.15;;;15.28;37.46
66742;BME280;53654;54.152;19.432;2023-04-29T06:15:00;101349.03;;;15.27;37.55
66742;BME280;53654;54.152;19.432;2023-04-29T06:17:29;101346.89;;;15.19;37.73
66742;BME280;53654;54.152;19.432;2023-04-29T06:19:57;101344.42;;;15.19;37.75
66742;BME280;53654;54.152;19.432;2023-04-29T06:22:25;101342.71;;;15.27;37.85
66742;BME280;53654;54.152;19.432;2023-04-29T06:24:54;101337.00;;;15.22;37.55
66742;BME280;53654;54.152;19.432;2023-04-29T06:27:41;101334.88;;;15.22;37.51
66742;BME280;53654;54.152;19.432;2023-04-29T06:30:10;101334.29;;;15.26;37.86
66742;BME280;53654;54.152;19.432;2023-04-29T06:32:39;101339.43;;;15.23;37.87
66742;BME280;53654;54.152;19.432;2023-04-29T06:35:07;101335.98;;;15.21;38.14
66742;BME280;53654;54.152;19.432;2023-04-29T06:37:54;101339.41;;;15.15;38.23
66742;BME280;53654;54.152;19.432;2023-04-29T06:40:40;101338.83;;;14.98;38.66
66742;BME280;53654;54.152;19.432;2023-04-29T06:43:31;101342.35;;;14.77;39.16
66742;BME280;53654;54.152;19.432;2023-04-29T06:46:34;101339.17;;;14.67;39.78
66742;BME280;53654;54.152;19.432;2023-04-29T06:49:07;101344.09;;;14.67;40.02
66742;BME280;53654;54.152;19.432;2023-04-29T06:51:38;101341.77;;;14.70;40.14
66742;BME280;53654;54.152;19.432;2023-04-29T06:54:06;101337.92;;;14.79;40.34
66742;BME280;53654;54.152;19.432;2023-04-29T06:56:34;101331.23;;;14.89;40.17
66742;BME280;53654;54.152;19.432;2023-04-29T06:59:03;101333.34;;;15.00;39.90
66742;BME280;53654;54.152;19.432;2023-04-29T07:01:31;101331.34;;;15.04;39.86
66742;BME280;53654;54.152;19.432;2023-04-29T07:03:59;101329.11;;;15.11;40.11
66742;BME280;53654;54.152;19.432;2023-04-29T07:06:27;101328.64;;;15.08;39.99
66742;BME280;53654;54.152;19.432;2023-04-29T07:08:56;101328.36;;;15.13;40.00
66742;BME280;53654;54.152;19.432;2023-04-29T07:11:26;101327.59;;;15.17;40.27
66742;BME280;53654;54.152;19.432;2023-04-29T07:13:54;101323.90;;;15.18;40.04
66742;BME280;53654;54.152;19.432;2023-04-29T07:16:22;101324.38;;;15.20;40.18
66742;BME280;53654;54.152;19.432;2023-04-29T07:18:53;101320.55;;;15.19;40.59
66742;BME280;53654;54.152;19.432;2023-04-29T07:21:21;101323.73;;;15.17;40.69
66742;BME280;53654;54.152;19.432;2023-04-29T07:23:49;101320.45;;;15.13;40.34
66742;BME280;53654;54.152;19.432;2023-04-29T07:26:17;101320.03;;;15.08;40.59
66742;BME280;53654;54.152;19.432;2023-04-29T07:28:47;101321.27;;;15.06;40.95
66742;BME280;53654;54.152;19.432;2023-04-29T07:31:15;101324.85;;;14.94;40.90
66742;BME280;53654;54.152;19.432;2023-04-29T07:33:44;101321.98;;;14.97;41.26
66742;BME280;53654;54.152;19.432;2023-04-29T07:36:13;101322.63;;;15.00;41.43
66742;BME280;53654;54.152;19.432;2023-04-29T07:38:41;101319.56;;;15.04;41.50
66742;BME280;53654;54.152;19.432;2023-04-29T07:41:09;101319.30;;;15.08;41.44
66742;BME280;53654;54.152;19.432;2023-04-29T07:43:37;101323.46;;;15.12;41.31
66742;BME280;53654;54.152;19.432;2023-04-29T07:46:09;101324.73;;;15.20;41.45
66742;BME280;53654;54.152;19.432;2023-04-29T07:48:38;101331.58;;;15.30;41.79
66742;BME280;53654;54.152;19.432;2023-04-29T07:51:11;101326.51;;;15.29;41.27
66742;BME280;53654;54.152;19.432;2023-04-29T07:53:42;101328.42;;;15.30;41.56
66742;BME280;53654;54.152;19.432;2023-04-29T07:56:10;101332.09;;;15.31;41.67
66742;BME280;53654;54.152;19.432;2023-04-29T07:58:40;101327.10;;;15.34;41.97
66742;BME280;53654;54.152;19.432;2023-04-29T08:01:09;101330.27;;;15.34;42.24
66742;BME280;53654;54.152;19.432;2023-04-29T08:03:40;101327.15;;;15.32;42.05
66742;BME280;53654;54.152;19.432;2023-04-29T08:06:10;101326.08;;;15.32;42.10
66742;BME280;53654;54.152;19.432;2023-04-29T08:08:41;101324.33;;;15.32;42.46
66742;BME280;53654;54.152;19.432;2023-04-29T08:11:15;101324.58;;;15.28;43.01
66742;BME280;53654;54.152;19.432;2023-04-29T08:13:43;101316.95;;;15.22;43.15
66742;BME280;53654;54.152;19.432;2023-04-29T08:16:11;101319.68;;;15.27;43.36
66742;BME280;53654;54.152;19.432;2023-04-29T08:18:40;101316.70;;;15.35;43.68
66742;BME280;53654;54.152;19.432;2023-04-29T08:21:08;101305.85;;;15.42;43.74
66742;BME280;53654;54.152;19.432;2023-04-29T08:23:39;101305.30;;;15.52;43.75
66742;BME280;53654;54.152;19.432;2023-04-29T08:26:09;101309.16;;;15.64;43.46
66742;BME280;53654;54.152;19.432;2023-04-29T08:28:38;101306.05;;;15.70;43.49
66742;BME280;53654;54.152;19.432;2023-04-29T08:31:06;101311.48;;;15.80;43.40
66742;BME280;53654;54.152;19.432;2023-04-29T08:33:34;101310.57;;;15.90;43.26
66742;BME280;53654;54.152;19.432;2023-04-29T08:36:04;101314.11;;;15.97;42.68
66742;BME280;53654;54.152;19.432;2023-04-29T08:38:32;101310.30;;;16.02;42.66
66742;BME280;53654;54.152;19.432;2023-04-29T08:41:00;101310.69;;;16.08;42.74
66742;BME280;53654;54.152;19.432;2023-04-29T08:43:28;101314.02;;;16.09;42.27
66742;BME280;53654;54.152;19.432;2023-04-29T08:45:57;101311.56;;;16.16;42.42
66742;BME280;53654;54.152;19.432;2023-04-29T08:48:27;101310.96;;;16.12;42.51
66742;BME280;53654;54.152;19.432;2023-04-29T08:50:56;101306.52;;;16.06;42.56
66742;BME280;53654;54.152;19.432;2023-04-29T08:53:25;101302.05;;;16.16;42.90
66742;BME280;53654;54.152;19.432;2023-04-29T08:55:57;101300.02;;;16.28;43.15
66742;BME280;53654;54.152;19.432;2023-04-29T08:58:28;101298.40;;;16.37;43.05
66742;BME280;53654;54.152;19.432;2023-04-29T09:00:56;101296.70;;;16.41;42.92
66742;BME280;53654;54.152;19.432;2023-04-29T09:03:32;101291.66;;;16.47;42.90
66742;BME280;53654;54.152;19.432;2023-04-29T09:06:02;101287.43;;;16.47;42.76
66742;BME280;53654;54.152;19.432;2023-04-29T09:08:32;101288.63;;;16.55;42.39
66742;BME280;53654;54.152;19.432;2023-04-29T09:11:01;101292.65;;;16.64;41.80
66742;BME280;53654;54.152;19.432;2023-04-29T09:13:30;101293.52;;;16.79;41.86
66742;BME280;53654;54.152;19.432;2023-04-29T09:15:58;101299.31;;;16.87;41.56
66742;BME280;53654;54.152;19.432;2023-04-29T09:18:46;101299.13;;;16.87;41.83
66742;BME280;53654;54.152;19.432;2023-04-29T09:21:22;101302.33;;;16.80;41.39
66742;BME280;53654;54.152;19.432;2023-04-29T09:23:52;101305.04;;;16.62;41.70
66742;BME280;53654;54.152;19.432;2023-04-29T09:26:21;101304.83;;;16.48;41.95
66742;BME280;53654;54.152;19.432;2023-04-29T09:29:13;101304.76;;;16.43;42.31
66742;BME280;53654;54.152;19.432;2023-04-29T09:31:44;101299.27;;;16.37;42.96
66742;BME280;53654;54.152;19.432;2023-04-29T09:34:13;101298.35;;;16.39;43.08
66742;BME280;53654;54.152;19.432;2023-04-29T09:36:49;101292.88;;;16.40;43.17
66742;BME280;53654;54.152;19.432;2023-04-29T09:39:22;101290.11;;;16.45;43.27
66742;BME280;53654;54.152;19.432;2023-04-29T09:44:23;101284.92;;;16.49;43.24
66742;BME280;53654;54.152;19.432;2023-04-29T09:49:40;101280.41;;;16.68;43.75
66742;BME280;53654;54.152;19.432;2023-04-29T09:52:12;101275.94;;;16.78;43.73
66742;BME280;53654;54.152;19.432;2023-04-29T09:54:42;101272.64;;;16.90;43.52
66742;BME280;53654;54.152;19.432;2023-04-29T09:57:11;101276.77;;;17.00;43.36
66742;BME280;53654;54.152;19.432;2023-04-29T09:59:41;101269.06;;;17.04;43.34
66742;BME280;53654;54.152;19.432;2023-04-29T10:04:39;101267.63;;;17.19;43.47
66742;BME280;53654;54.152;19.432;2023-04-29T10:07:13;101267.80;;;17.25;43.35
66742;BME280;53654;54.152;19.432;2023-04-29T10:09:43;101263.61;;;17.35;43.35
66742;BME280;53654;54.152;19.432;2023-04-29T10:12:18;101267.61;;;17.50;43.59
66742;BME280;53654;54.152;19.432;2023-04-29T10:17:48;101271.70;;;17.61;42.76
66742;BME280;53654;54.152;19.432;2023-04-29T10:20:21;101271.39;;;17.66;42.58
66742;BME280;53654;54.152;19.432;2023-04-29T10:22:52;101278.04;;;17.75;43.10
66742;BME280;53654;54.152;19.432;2023-04-29T10:25:24;101274.77;;;17.78;43.05
66742;BME280;53654;54.152;19.432;2023-04-29T10:27:55;101271.64;;;17.82;43.10
66742;BME280;53654;54.152;19.432;2023-04-29T10:30:23;101274.73;;;17.85;42.99
66742;BME280;53654;54.152;19.432;2023-04-29T10:32:51;101269.20;;;17.87;42.25
66742;BME280;53654;54.152;19.432;2023-04-29T10:35:20;101267.46;;;17.92;41.66
66742;BME280;53654;54.152;19.432;2023-04-29T10:37:53;101268.29;;;17.88;41.47
66742;BME280;53654;54.152;19.432;2023-04-29T10:42:58;101260.02;;;17.87;41.94
66742;BME280;53654;54.152;19.432;2023-04-29T10:45:28;101261.14;;;17.91;41.64
66742;BME280;53654;54.152;19.432;2023-04-29T10:53:18;101251.55;;;17.92;40.61
66742;BME280;53654;54.152;19.432;2023-04-29T10:56:09;101243.98;;;17.98;41.22
66742;BME280;53654;54.152;19.432;2023-04-29T10:58:44;101248.62;;;18.02;40.99
66742;BME280;53654;54.152;19.432;2023-04-29T11:01:16;101251.20;;;18.09;41.18
66742;BME280;53654;54.152;19.432;2023-04-29T11:03:54;101253.33;;;18.14;40.89
66742;BME280;53654;54.152;19.432;2023-04-29T11:06:55;101253.64;;;18.10;40.69
66742;BME280;53654;54.152;19.432;2023-04-29T11:09:29;101243.23;;;17.99;41.09
66742;BME280;53654;54.152;19.432;2023-04-29T11:14:31;101252.34;;;17.96;40.37
66742;BME280;53654;54.152;19.432;2023-04-29T11:17:06;101250.08;;;17.95;40.47
66742;BME280;53654;54.152;19.432;2023-04-29T11:19:55;101251.61;;;17.96;40.58
66742;BME280;53654;54.152;19.432;2023-04-29T11:22:25;101246.30;;;17.91;40.64
66742;BME280;53654;54.152;19.432;2023-04-29T11:27:34;101244.73;;;17.90;40.64
66742;BME280;53654;54.152;19.432;2023-04-29T11:30:04;101242.23;;;17.92;41.14
66742;BME280;53654;54.152;19.432;2023-04-29T11:32:35;101242.60;;;17.91;40.86
66742;BME280;53654;54.152;19.432;2023-04-29T11:35:14;101238.29;;;17.88;41.13
66742;BME280;53654;54.152;19.432;2023-04-29T11:37:44;101235.13;;;17.82;41.26
66742;BME280;53654;54.152;19.432;2023-04-29T11:40:13;101233.45;;;17.79;41.44
66742;BME280;53654;54.152;19.432;2023-04-29T11:42:47;101229.14;;;17.81;41.70
66742;BME280;53654;54.152;19.432;2023-04-29T11:45:16;101228.34;;;17.84;41.59
66742;BME280;53654;54.152;19.432;2023-04-29T11:47:46;101226.16;;;17.86;41.17
66742;BME280;53654;54.152;19.432;2023-04-29T11:50:16;101225.83;;;17.86;41.13
66742;BME280;53654;54.152;19.432;2023-04-29T11:52:47;101224.83;;;17.84;40.82
66742;BME280;53654;54.152;19.432;2023-04-29T11:55:16;101227.45;;;17.84;41.09
66742;BME280;53654;54.152;19.432;2023-04-29T11:57:48;101228.36;;;17.84;40.94
66742;BME280;53654;54.152;19.432;2023-04-29T12:00:16;101222.18;;;17.78;40.97
66742;BME280;53654;54.152;19.432;2023-04-29T12:02:45;101222.27;;;17.75;40.62
66742;BME280;53654;54.152;19.432;2023-04-29T12:05:14;101223.58;;;17.73;40.71
66742;BME280;53654;54.152;19.432;2023-04-29T12:07:44;101222.24;;;17.69;41.26
66742;BME280;53654;54.152;19.432;2023-04-29T12:10:12;101218.52;;;17.70;41.59
66742;BME280;53654;54.152;19.432;2023-04-29T12:12:41;101221.48;;;17.71;41.50
66742;BME280;53654;54.152;19.432;2023-04-29T12:15:11;101219.70;;;17.73;42.01
66742;BME280;53654;54.152;19.432;2023-04-29T12:17:41;101218.78;;;17.68;41.75
66742;BME280;53654;54.152;19.432;2023-04-29T12:20:10;101219.53;;;17.65;41.70
66742;BME280;53654;54.152;19.432;2023-04-29T12:22:38;101220.58;;;17.66;42.21
66742;BME280;53654;54.152;19.432;2023-04-29T12:25:09;101216.85;;;17.68;42.59
66742;BME280;53654;54.152;19.432;2023-04-29T12:27:40;101215.30;;;17.66;42.15
66742;BME280;53654;54.152;19.432;2023-04-29T12:30:10;101214.77;;;17.65;41.81
66742;BME280;53654;54.152;19.432;2023-04-29T12:32:39;101214.42;;;17.66;42.08
66742;BME280;53654;54.152;19.432;2023-04-29T12:35:14;101214.56;;;17.67;42.44
66742;BME280;53654;54.152;19.432;2023-04-29T12:37:47;101208.25;;;17.66;42.27
66742;BME280;53654;54.152;19.432;2023-04-29T12:40:16;101214.06;;;17.66;42.56
66742;BME280;53654;54.152;19.432;2023-04-29T12:42:44;101213.69;;;17.67;42.90
66742;BME280;53654;54.152;19.432;2023-04-29T12:45:32;101214.37;;;17.68;42.66
66742;BME280;53654;54.152;19.432;2023-04-29T12:48:01;101214.64;;;17.63;42.22
66742;BME280;53654;54.152;19.432;2023-04-29T12:50:37;101215.92;;;17.62;42.68
66742;BME280;53654;54.152;19.432;2023-04-29T12:53:07;101212.03;;;17.62;42.66
66742;BME280;53654;54.152;19.432;2023-04-29T12:55:36;101215.09;;;17.60;42.01
66742;BME280;53654;54.152;19.432;2023-04-29T12:58:05;101214.30;;;17.51;41.56
66742;BME280;53654;54.152;19.432;2023-04-29T13:00:34;101212.98;;;17.43;41.11
66742;BME280;53654;54.152;19.432;2023-04-29T13:03:04;101205.67;;;17.33;41.45
66742;BME280;53654;54.152;19.432;2023-04-29T13:05:34;101208.30;;;17.28;42.04
66742;BME280;53654;54.152;19.432;2023-04-29T13:08:02;101203.40;;;17.21;42.57
66742;BME280;53654;54.152;19.432;2023-04-29T13:10:33;101201.84;;;17.14;42.73
66742;BME280;53654;54.152;19.432;2023-04-29T13:13:01;101197.08;;;17.07;43.17
66742;BME280;53654;54.152;19.432;2023-04-29T13:15:29;101198.66;;;17.01;43.36
66742;BME280;53654;54.152;19.432;2023-04-29T13:17:57;101196.65;;;16.91;43.39
66742;BME280;53654;54.152;19.432;2023-04-29T13:20:25;101192.84;;;16.82;43.26
66742;BME280;53654;54.152;19.432;2023-04-29T13:22:53;101188.73;;;16.78;43.65
66742;BME280;53654;54.152;19.432;2023-04-29T13:25:21;101186.27;;;16.77;43.97
66742;BME280;53654;54.152;19.432;2023-04-29T13:27:49;101183.65;;;16.77;43.90
66742;BME280;53654;54.152;19.432;2023-04-29T13:30:17;101176.96;;;16.77;43.71
66742;BME280;53654;54.152;19.432;2023-04-29T13:32:45;101178.17;;;16.77;43.53
66742;BME280;53654;54.152;19.432;2023-04-29T13:35:23;101177.64;;;16.78;43.42